createdAt,value
2023-04-07T00:04:26.691Z,101381.06
2023-04-07T00:09:35.443Z,101380.28
2023-04-07T00:14:38.353Z,101382.47
2023-04-07T00:19:42.474Z,101376.66
2023-04-07T00:24:45.321Z,101375.47
2023-04-07T00:29:48.128Z,101373.06
2023-04-07T00:34:52.266Z,101380.59
2023-04-07T00:40:18.342Z,101382.00
2023-04-07T00:45:21.744Z,101379.69
2023-04-07T00:50:29.372Z,101372.53
2023-04-07T00:55:32.228Z,101374.81
2023-04-07T01:00:39.307Z,101371.28
2023-04-07T01:06:04.075Z,101375.81
2023-04-07T01:11:24.106Z,101359.66
2023-04-07T01:16:32.292Z,101367.59
2023-04-07T01:21:40.469Z,101369.16
2023-04-07T01:26:44.057Z,101366.56
2023-04-07T01:31:56.630Z,101372.50
2023-04-07T01:37:02.533Z,101362.53
2023-04-07T01:42:08.438Z,101363.72
2023-04-07T01:47:13.389Z,101367.47
2023-04-07T01:52:35.159Z,101370.97
2023-04-07T01:57:37.995Z,101375.19
2023-04-07T02:02:56.161Z,101395.94
2023-04-07T02:08:12.459Z,101381.72
2023-04-07T02:13:19.318Z,101388.94
2023-04-07T02:18:44.787Z,101389.00
2023-04-07T02:23:48.041Z,101380.34
2023-04-07T02:28:51.287Z,101381.19
2023-04-07T02:33:55.512Z,101377.84
2023-04-07T02:39:12.287Z,101397.00
2023-04-07T02:44:15.514Z,101399.34
2023-04-07T02:49:20.386Z,101397.06
2023-04-07T02:54:23.308Z,101397.59
2023-04-07T02:59:26.498Z,101400.84
2023-04-07T03:04:31.716Z,101404.78
2023-04-07T03:09:36.552Z,101410.69
2023-04-07T03:14:39.674Z,101397.56
2023-04-07T03:19:44.330Z,101415.53
2023-04-07T03:24:47.256Z,101410.50
2023-04-07T03:29:51.773Z,101411.41
2023-04-07T03:34:57.116Z,101413.63
2023-04-07T03:40:00.213Z,101414.38
2023-04-07T03:45:08.980Z,101423.38
2023-04-07T03:50:17.125Z,101422.38
2023-04-07T03:55:38.044Z,101431.72
2023-04-07T04:00:48.939Z,101423.53
2023-04-07T04:05:53.878Z,101431.66
2023-04-07T04:11:02.795Z,101433.03
2023-04-07T04:16:14.505Z,101432.91
2023-04-07T04:21:20.023Z,101436.13
2023-04-07T04:26:25.968Z,101441.13
2023-04-07T04:31:33.158Z,101446.16
2023-04-07T04:42:45.778Z,101464.88
2023-04-07T04:47:49.701Z,101466.59
2023-04-07T04:52:54.592Z,101458.06
2023-04-07T04:57:59.568Z,101473.63
2023-04-07T05:03:13.686Z,101483.09
2023-04-07T05:08:21.964Z,101483.47
2023-04-07T05:13:26.549Z,101484.63
2023-04-07T05:18:30.576Z,101499.88
2023-04-07T05:23:36.364Z,101501.03
2023-04-07T05:28:40.926Z,101494.63
2023-04-07T05:33:50.944Z,101501.44
2023-04-07T05:38:57.611Z,101514.09
2023-04-07T05:44:00.599Z,101519.41
2023-04-07T05:49:18.939Z,101517.47
2023-04-07T05:54:27.767Z,101526.19
2023-04-07T05:59:30.839Z,101526.53
2023-04-07T06:04:35.380Z,101530.59
2023-04-07T06:09:42.609Z,101545.19
2023-04-07T06:14:48.345Z,101529.22
2023-04-07T06:19:51.215Z,101534.47
2023-04-07T06:24:55.361Z,101540.69
2023-04-07T06:29:58.131Z,101546.00
2023-04-07T06:35:02.149Z,101545.88
2023-04-07T06:40:08.948Z,101558.34
2023-04-07T06:45:12.129Z,101551.53
2023-04-07T06:50:14.938Z,101553.34
2023-04-07T06:55:19.191Z,101549.50
2023-04-07T07:00:22.976Z,101559.16
2023-04-07T07:05:26.213Z,101559.34
2023-04-07T07:10:30.628Z,101566.88
2023-04-07T07:15:33.436Z,101567.78
2023-04-07T07:20:36.281Z,101565.09
2023-04-07T07:25:40.566Z,101568.25
2023-04-07T07:30:43.481Z,101560.47
2023-04-07T07:35:46.246Z,101579.63
2023-04-07T07:40:50.365Z,101578.28
2023-04-07T07:45:53.266Z,101575.59
2023-04-07T07:50:56.967Z,101588.75
2023-04-07T07:56:01.916Z,101599.78
2023-04-07T08:01:05.438Z,101593.81
2023-04-07T08:06:09.378Z,101606.00
2023-04-07T08:11:13.536Z,101608.69
2023-04-07T08:16:16.475Z,101615.56
2023-04-07T08:21:20.112Z,101619.88
2023-04-07T08:26:24.233Z,101619.59
2023-04-07T08:31:27.578Z,101630.88
2023-04-07T08:36:31.507Z,101625.16
2023-04-07T08:41:39.056Z,101633.06
2023-04-07T08:46:42.379Z,101635.41
2023-04-07T08:51:47.338Z,101626.94
2023-04-07T08:56:51.788Z,101636.56
2023-04-07T09:01:56.265Z,101633.53
2023-04-07T09:07:00.072Z,101636.97
2023-04-07T09:12:04.296Z,101635.88
2023-04-07T09:17:07.061Z,101631.19
2023-04-07T09:22:12.493Z,101629.13
2023-04-07T09:27:19.121Z,101636.91
2023-04-07T09:32:38.634Z,101621.31
2023-04-07T09:37:42.595Z,101624.13
2023-04-07T09:42:50.046Z,101619.22
2023-04-07T09:47:52.982Z,101626.59
2023-04-07T09:52:56.189Z,101615.97
2023-04-07T09:58:00.972Z,101624.88
2023-04-07T10:03:05.266Z,101604.31
2023-04-07T10:08:08.316Z,101606.56
2023-04-07T10:13:13.480Z,101618.31
2023-04-07T10:18:19.078Z,101615.38
2023-04-07T10:23:25.769Z,101617.34
2023-04-07T10:28:32.742Z,101624.84
2023-04-07T10:33:46.839Z,101623.03
2023-04-07T10:39:24.344Z,101622.66
2023-04-07T10:44:50.467Z,101631.72
2023-04-07T10:50:18.078Z,101614.19
2023-04-07T10:55:32.691Z,101619.78
2023-04-07T11:00:36.792Z,101622.06
2023-04-07T11:05:39.775Z,101630.34
2023-04-07T11:10:48.816Z,101630.22
2023-04-07T11:15:53.160Z,101611.53
2023-04-07T11:20:58.472Z,101615.56
2023-04-07T11:26:02.735Z,101613.88
2023-04-07T11:31:07.083Z,101613.63
2023-04-07T11:36:09.933Z,101618.81
2023-04-07T11:41:14.043Z,101621.41
2023-04-07T11:46:19.838Z,101623.59
2023-04-07T11:51:24.041Z,101633.72
2023-04-07T11:56:27.994Z,101637.22
2023-04-07T12:01:42.830Z,101628.34
2023-04-07T12:06:47.321Z,101643.84
2023-04-07T12:11:50.945Z,101648.91
2023-04-07T12:16:57.766Z,101634.56
2023-04-07T12:22:00.667Z,101634.09
2023-04-07T12:27:03.663Z,101639.75
2023-04-07T12:32:07.785Z,101645.13
2023-04-07T12:37:10.530Z,101644.06
2023-04-07T12:42:22.861Z,101652.28
2023-04-07T12:47:27.242Z,101637.63
2023-04-07T12:52:30.628Z,101646.69
2023-04-07T12:57:33.729Z,101650.25
2023-04-07T13:02:38.131Z,101646.69
2023-04-07T13:07:41.016Z,101642.56
2023-04-07T13:12:43.870Z,101639.53
2023-04-07T13:17:48.241Z,101649.84
2023-04-07T13:23:02.845Z,101639.66
2023-04-07T13:28:20.968Z,101642.56
2023-04-07T13:33:33.095Z,101629.44
2023-04-07T13:38:36.641Z,101629.31
2023-04-07T13:43:45.482Z,101627.66
2023-04-07T13:48:59.394Z,101637.53
2023-04-07T13:54:02.239Z,101633.81
2023-04-07T13:59:07.466Z,101627.75
2023-04-07T14:04:31.243Z,101641.88
2023-04-07T14:16:27.717Z,101626.53
2023-04-07T14:22:09.351Z,101631.53
2023-04-07T14:27:20.647Z,101625.00
2023-04-07T14:32:25.151Z,101628.00
2023-04-07T14:37:30.619Z,101626.91
2023-04-07T14:42:33.829Z,101631.53
2023-04-07T14:47:41.226Z,101636.00
2023-04-07T14:52:47.861Z,101634.53
2023-04-07T14:57:59.224Z,101649.06
2023-04-07T15:03:07.053Z,101656.97
2023-04-07T15:08:11.440Z,101671.22
2023-04-07T15:13:16.406Z,101677.09
2023-04-07T15:18:19.318Z,101679.38
2023-04-07T15:23:37.887Z,101671.69
2023-04-07T15:28:42.265Z,101685.38
2023-04-07T15:33:49.322Z,101685.63
2023-04-07T15:38:57.884Z,101697.19
2023-04-07T15:44:01.969Z,101692.41
2023-04-07T15:49:06.378Z,101703.75
2023-04-07T15:54:13.203Z,101702.00
2023-04-07T15:59:20.534Z,101697.75
2023-04-07T16:04:45.395Z,101717.84
2023-04-07T16:09:49.590Z,101716.78
2023-04-07T16:14:52.630Z,101727.00
2023-04-07T16:19:55.640Z,101726.75
2023-04-07T16:25:01.946Z,101731.44
2023-04-07T16:30:12.306Z,101740.47
2023-04-07T16:35:26.646Z,101735.25
2023-04-07T16:40:33.291Z,101739.47
2023-04-07T16:45:38.248Z,101744.78
2023-04-07T16:50:42.688Z,101757.50
2023-04-07T16:55:47.071Z,101759.38
2023-04-07T17:00:49.777Z,101760.94
2023-04-07T17:05:58.217Z,101779.94
2023-04-07T17:11:02.754Z,101791.94
2023-04-07T17:16:06.028Z,101791.06
2023-04-07T17:21:08.862Z,101805.66
2023-04-07T17:26:13.035Z,101810.03
2023-04-07T17:31:15.971Z,101818.34
2023-04-07T17:36:20.550Z,101822.09
2023-04-07T17:41:28.068Z,101832.84
2023-04-07T17:46:31.179Z,101837.63
2023-04-07T17:51:34.041Z,101844.69
2023-04-07T17:56:38.789Z,101836.31
2023-04-07T18:01:41.781Z,101843.78
2023-04-07T18:06:45.003Z,101856.91
2023-04-07T18:11:49.099Z,101863.09
2023-04-07T18:16:54.089Z,101866.09
2023-04-07T18:21:56.957Z,101869.56
2023-04-07T18:27:02.492Z,101868.03
2023-04-07T18:32:05.354Z,101875.72
2023-04-07T18:37:08.134Z,101885.66
2023-04-07T18:42:15.419Z,101877.03
2023-04-07T18:47:20.639Z,101890.81
2023-04-07T18:52:25.544Z,101889.81
2023-04-07T18:57:31.230Z,101901.56
2023-04-07T19:02:37.024Z,101904.19
2023-04-07T19:07:40.362Z,101913.19
2023-04-07T19:12:47.525Z,101913.19
2023-04-07T19:17:52.158Z,101920.00
2023-04-07T19:22:57.336Z,101924.91
2023-04-07T19:28:04.195Z,101929.78
2023-04-07T19:33:07.431Z,101929.41
2023-04-07T19:38:10.375Z,101937.59
2023-04-07T19:43:17.369Z,101928.56
2023-04-07T19:48:25.729Z,101926.19
2023-04-07T19:53:30.808Z,101929.44
2023-04-07T19:58:35.299Z,101940.63
2023-04-07T20:03:39.822Z,101936.81
2023-04-07T20:08:42.708Z,101940.13
2023-04-07T20:13:51.721Z,101942.13
2023-04-07T20:18:55.128Z,101938.97
2023-04-07T20:24:07.808Z,101942.16
2023-04-07T20:29:12.067Z,101947.16
2023-04-07T20:34:14.827Z,101950.94
2023-04-07T20:39:20.450Z,101955.31
2023-04-07T20:44:28.146Z,101954.06
2023-04-07T20:55:07.621Z,101958.84
2023-04-07T21:00:14.260Z,101961.66
2023-04-07T21:05:17.260Z,101966.66
2023-04-07T21:10:20.540Z,101967.84
2023-04-07T21:15:28.837Z,101974.84
2023-04-07T21:20:32.220Z,101962.69
2023-04-07T21:25:35.229Z,101956.47
2023-04-07T21:30:42.547Z,101963.72
2023-04-07T21:35:54.966Z,101963.91
2023-04-07T21:41:01.117Z,101958.28
2023-04-07T21:46:05.743Z,101961.81
2023-04-07T21:51:11.270Z,101956.22
2023-04-07T21:56:26.815Z,101955.91
2023-04-07T22:01:32.373Z,101950.09
2023-04-07T22:06:35.292Z,101949.97
2023-04-07T22:11:38.084Z,101955.81
2023-04-07T22:16:42.382Z,101957.13
2023-04-07T22:21:45.328Z,101963.53
2023-04-07T22:26:57.491Z,101961.91
2023-04-07T22:32:01.637Z,101965.06
2023-04-07T22:37:06.655Z,101960.56
2023-04-07T22:42:09.361Z,101964.00
2023-04-07T22:47:13.426Z,101966.19
2023-04-07T22:52:16.178Z,101964.34
2023-04-07T23:02:46.627Z,101960.97
2023-04-07T23:19:01.185Z,101964.44
2023-04-07T23:24:18.214Z,101964.50
2023-04-07T23:29:21.151Z,101967.38
2023-04-07T23:34:25.326Z,101966.88
2023-04-07T23:39:30.074Z,101979.38
2023-04-07T23:44:32.838Z,101974.69
2023-04-07T23:49:37.047Z,101977.06
2023-04-07T23:54:41.104Z,101972.13
2023-04-07T23:59:44.096Z,101965.97
